createdAt,value
2022-09-25T00:00:20.588Z,12.2
2022-09-25T00:01:24.374Z,12.2
2022-09-25T00:02:28.147Z,12.2
2022-09-25T00:03:31.564Z,12.2
2022-09-25T00:04:34.734Z,12.3
2022-09-25T00:05:37.854Z,12.3
2022-09-25T00:06:40.029Z,12.2
2022-09-25T00:07:43.450Z,12.2
2022-09-25T00:08:46.810Z,12.2
2022-09-25T00:09:49.601Z,12.2
2022-09-25T00:10:52.134Z,12.2
2022-09-25T00:11:55.508Z,12.3
2022-09-25T00:12:58.315Z,12.3
2022-09-25T00:14:00.753Z,12.3
2022-09-25T00:15:04.105Z,12.2
2022-09-25T00:16:08.031Z,12.3
2022-09-25T00:17:10.701Z,12.3
2022-09-25T00:18:13.897Z,12.3
2022-09-25T00:19:17.026Z,12.3
2022-09-25T00:20:19.707Z,12.3
2022-09-25T00:21:23.343Z,12.3
2022-09-25T00:22:26.337Z,12.3
2022-09-25T00:23:29.490Z,12.3
2022-09-25T00:24:32.929Z,12.3
2022-09-25T00:25:36.164Z,12.3
2022-09-25T00:26:39.643Z,12.2
2022-09-25T00:27:42.699Z,12.2
2022-09-25T00:28:45.786Z,12.2
2022-09-25T00:29:48.401Z,12.3
2022-09-25T00:30:52.484Z,12.2
2022-09-25T00:31:56.478Z,12.3
2022-09-25T00:32:59.631Z,12.3
2022-09-25T00:34:02.734Z,12.2
2022-09-25T00:35:05.681Z,12.2
2022-09-25T00:36:08.775Z,12.3
2022-09-25T00:37:11.675Z,12.2
2022-09-25T00:38:15.019Z,12.2
2022-09-25T00:39:17.542Z,12.2
2022-09-25T00:40:21.098Z,12.2
2022-09-25T00:41:23.693Z,12.2
2022-09-25T00:42:26.388Z,12.2
2022-09-25T00:43:29.725Z,12.2
2022-09-25T00:44:32.719Z,12.3
2022-09-25T00:45:35.513Z,12.3
2022-09-25T00:46:39.267Z,12.3
2022-09-25T00:47:43.146Z,12.2
2022-09-25T00:48:46.255Z,12.1
2022-09-25T00:49:49.072Z,12.2
2022-09-25T00:50:51.860Z,12.2
2022-09-25T00:51:56.182Z,12.2
2022-09-25T00:52:59.400Z,12.3
2022-09-25T00:54:02.942Z,12.2
2022-09-25T00:55:06.782Z,12.2
2022-09-25T00:56:10.122Z,12.2
2022-09-25T00:57:13.022Z,12.2
2022-09-25T00:58:16.084Z,12.3
2022-09-25T00:59:18.601Z,12.3
2022-09-25T01:00:20.998Z,12.3
2022-09-25T01:01:24.532Z,12.3
2022-09-25T01:02:28.729Z,12.2
2022-09-25T01:03:33.047Z,12.1
2022-09-25T01:04:36.528Z,12.2
2022-09-25T01:05:40.157Z,12.2
2022-09-25T01:06:43.222Z,12.2
2022-09-25T01:07:46.599Z,12.2
2022-09-25T01:08:49.428Z,12.2
2022-09-25T01:09:52.955Z,12.2
2022-09-25T01:10:55.955Z,12.2
2022-09-25T01:11:59.063Z,12.2
2022-09-25T01:13:02.132Z,12.2
2022-09-25T01:14:05.017Z,12.3
2022-09-25T01:15:08.165Z,12.3
2022-09-25T01:16:11.645Z,12.2
2022-09-25T01:17:14.735Z,12.2
2022-09-25T01:18:18.290Z,12.3
2022-09-25T01:19:22.373Z,12.3
2022-09-25T01:20:25.189Z,12.3
2022-09-25T01:21:28.354Z,12.3
2022-09-25T01:22:31.520Z,12.3
2022-09-25T01:23:34.942Z,12.2
2022-09-25T01:24:37.489Z,12.2
2022-09-25T01:25:42.624Z,12.3
2022-09-25T01:26:45.800Z,12.2
2022-09-25T01:27:48.587Z,12.2
2022-09-25T01:28:51.649Z,12.1
2022-09-25T01:29:55.030Z,12.2
2022-09-25T01:30:57.837Z,12.2
2022-09-25T01:32:00.719Z,12.3
2022-09-25T01:33:03.396Z,12.3
2022-09-25T01:34:06.919Z,12.2
2022-09-25T01:35:10.521Z,12.3
2022-09-25T01:36:13.609Z,12.2
2022-09-25T01:37:17.064Z,12.2
2022-09-25T01:38:20.412Z,12.2
2022-09-25T01:39:23.292Z,12.2
2022-09-25T01:40:26.972Z,12.2
2022-09-25T01:41:29.241Z,12.3
2022-09-25T01:42:31.954Z,12.3
2022-09-25T01:43:35.677Z,12.2
2022-09-25T01:44:38.496Z,12.3
2022-09-25T01:45:41.965Z,12.3
2022-09-25T01:46:45.188Z,12.2
2022-09-25T01:47:48.192Z,12.2
2022-09-25T01:48:51.647Z,12.1
2022-09-25T01:49:55.155Z,12.1
2022-09-25T01:50:59.321Z,12.1
2022-09-25T01:52:01.755Z,12.1
2022-09-25T01:53:04.836Z,12.1
2022-09-25T01:54:08.382Z,12.1
2022-09-25T01:55:12.072Z,12.2
2022-09-25T01:56:15.237Z,12.3
2022-09-25T01:57:17.472Z,12.2
2022-09-25T01:58:19.910Z,12.3
2022-09-25T01:59:22.708Z,12.3
2022-09-25T02:00:25.596Z,12.2
2022-09-25T02:01:28.400Z,12.2
2022-09-25T02:02:32.238Z,12.2
2022-09-25T02:03:35.407Z,12.2
2022-09-25T02:04:38.749Z,12.2
2022-09-25T02:05:42.571Z,12.2
2022-09-25T02:06:46.351Z,12.1
2022-09-25T02:07:49.838Z,12.1
2022-09-25T02:08:53.283Z,12
2022-09-25T02:09:56.069Z,12.1
2022-09-25T02:10:58.945Z,12.1
2022-09-25T02:12:02.117Z,12.2
2022-09-25T02:13:05.624Z,12.1
2022-09-25T02:14:08.527Z,12.1
2022-09-25T02:15:11.698Z,12
2022-09-25T02:16:14.987Z,12
2022-09-25T02:17:18.516Z,11.9
2022-09-25T02:18:20.479Z,12
2022-09-25T02:19:23.839Z,12
2022-09-25T02:20:27.289Z,12
2022-09-25T02:21:30.592Z,11.9
2022-09-25T02:22:34.097Z,11.9
2022-09-25T02:23:36.941Z,11.9
2022-09-25T02:24:40.674Z,12
2022-09-25T02:25:43.111Z,11.9
2022-09-25T02:26:46.010Z,11.9
2022-09-25T02:27:49.085Z,11.9
2022-09-25T02:28:52.537Z,11.9
2022-09-25T02:29:55.529Z,11.9
2022-09-25T02:30:59.321Z,11.9
2022-09-25T02:32:02.263Z,11.9
2022-09-25T02:33:05.055Z,11.9
2022-09-25T02:34:17.829Z,12
2022-09-25T02:35:21.619Z,11.9
2022-09-25T02:36:24.489Z,12
2022-09-25T02:37:26.977Z,11.9
2022-09-25T02:38:30.576Z,11.9
2022-09-25T02:39:33.572Z,11.9
2022-09-25T02:40:36.790Z,11.9
2022-09-25T02:41:39.982Z,11.9
2022-09-25T02:42:42.492Z,11.9
2022-09-25T02:43:45.671Z,11.8
2022-09-25T02:44:48.196Z,11.9
2022-09-25T02:45:51.038Z,11.8
2022-09-25T02:46:55.018Z,11.9
2022-09-25T02:47:57.829Z,11.8
2022-09-25T02:49:00.980Z,11.9
2022-09-25T02:50:03.934Z,11.9
2022-09-25T02:51:06.921Z,11.8
2022-09-25T02:52:09.989Z,11.8
2022-09-25T02:53:12.837Z,11.9
2022-09-25T02:54:16.934Z,11.9
2022-09-25T02:55:19.814Z,11.8
2022-09-25T02:56:22.648Z,11.8
2022-09-25T02:57:25.717Z,11.8
2022-09-25T02:58:28.861Z,11.8
2022-09-25T02:59:32.225Z,11.8
2022-09-25T03:00:35.377Z,11.8
2022-09-25T03:01:38.330Z,11.8
2022-09-25T03:02:42.301Z,11.7
2022-09-25T03:03:45.429Z,11.8
2022-09-25T03:04:47.763Z,11.8
2022-09-25T03:05:50.694Z,11.8
2022-09-25T03:06:54.041Z,11.8
2022-09-25T03:07:56.914Z,11.8
2022-09-25T03:09:00.380Z,11.8
2022-09-25T03:10:04.454Z,11.8
2022-09-25T03:11:07.609Z,11.8
2022-09-25T03:12:10.205Z,11.7
2022-09-25T03:13:13.650Z,11.7
2022-09-25T03:14:16.788Z,11.8
2022-09-25T03:15:20.078Z,11.8
2022-09-25T03:16:23.275Z,11.8
2022-09-25T03:17:26.545Z,11.8
2022-09-25T03:18:30.255Z,11.8
2022-09-25T03:19:33.046Z,11.7
2022-09-25T03:20:35.371Z,11.7
2022-09-25T03:21:38.442Z,11.7
2022-09-25T03:22:41.795Z,11.7
2022-09-25T03:23:44.589Z,11.7
2022-09-25T03:24:47.273Z,11.7
2022-09-25T03:25:52.379Z,11.7
2022-09-25T03:26:55.282Z,11.7
2022-09-25T03:27:58.643Z,11.8
2022-09-25T03:29:01.794Z,11.8
2022-09-25T03:30:04.659Z,11.8
2022-09-25T03:31:08.771Z,11.8
2022-09-25T03:32:11.805Z,11.8
2022-09-25T03:33:15.216Z,11.8
2022-09-25T03:34:17.665Z,11.8
2022-09-25T03:35:20.822Z,11.8
2022-09-25T03:36:25.468Z,11.8
2022-09-25T03:37:29.181Z,11.8
2022-09-25T03:38:31.894Z,11.8
2022-09-25T03:39:34.534Z,11.8
2022-09-25T03:40:38.590Z,11.9
2022-09-25T03:41:42.429Z,11.8
2022-09-25T03:42:44.949Z,11.8
2022-09-25T03:43:47.925Z,11.8
2022-09-25T03:44:51.188Z,11.8
2022-09-25T03:45:54.318Z,11.8
2022-09-25T03:46:57.508Z,11.9
2022-09-25T03:47:59.754Z,11.9
2022-09-25T03:49:03.098Z,11.8
2022-09-25T03:50:06.366Z,11.8
2022-09-25T03:51:09.184Z,11.8
2022-09-25T03:52:12.903Z,11.8
2022-09-25T03:53:16.450Z,11.8
2022-09-25T03:54:19.444Z,11.8
2022-09-25T03:55:21.966Z,11.7
2022-09-25T03:56:24.846Z,11.8
2022-09-25T03:57:29.010Z,11.8
2022-09-25T03:58:32.094Z,11.8
2022-09-25T03:59:35.096Z,11.8
2022-09-25T04:00:38.054Z,11.7
2022-09-25T04:01:41.744Z,11.7
2022-09-25T04:02:44.625Z,11.8
2022-09-25T04:03:48.496Z,11.8
2022-09-25T04:04:51.590Z,11.7
2022-09-25T04:05:54.473Z,11.7
2022-09-25T04:06:57.267Z,11.8
2022-09-25T04:07:59.864Z,11.8
2022-09-25T04:09:02.666Z,11.8
2022-09-25T04:10:05.191Z,11.8
2022-09-25T04:11:08.243Z,11.8
2022-09-25T04:12:11.459Z,11.8
2022-09-25T04:13:15.697Z,11.7
2022-09-25T04:14:18.452Z,11.7
2022-09-25T04:15:21.325Z,11.7
2022-09-25T04:16:24.836Z,11.8
2022-09-25T04:17:28.023Z,11.8
2022-09-25T04:18:30.793Z,11.8
2022-09-25T04:19:33.597Z,11.8
2022-09-25T04:20:36.741Z,11.8
2022-09-25T04:21:39.804Z,11.8
2022-09-25T04:22:42.595Z,11.8
2022-09-25T04:23:45.777Z,11.8
2022-09-25T04:24:48.955Z,11.9
2022-09-25T04:25:51.870Z,11.9
2022-09-25T04:26:54.911Z,11.9
2022-09-25T04:27:58.175Z,11.9
2022-09-25T04:29:02.518Z,11.9
2022-09-25T04:30:05.986Z,11.9
2022-09-25T04:31:09.327Z,11.8
2022-09-25T04:32:12.038Z,11.9
2022-09-25T04:33:15.466Z,11.8
2022-09-25T04:34:19.205Z,11.8
2022-09-25T04:35:21.993Z,11.8
2022-09-25T04:36:25.729Z,11.8
2022-09-25T04:37:28.362Z,11.8
2022-09-25T04:38:31.356Z,11.8
2022-09-25T04:39:34.302Z,11.9
2022-09-25T04:40:38.360Z,11.8
2022-09-25T04:41:41.546Z,11.7
2022-09-25T04:42:45.056Z,11.6
2022-09-25T04:43:48.286Z,11.7
2022-09-25T04:44:52.247Z,11.7
2022-09-25T04:45:56.014Z,11.7
2022-09-25T04:46:59.196Z,11.8
2022-09-25T04:48:02.255Z,11.8
2022-09-25T04:49:05.715Z,11.8
2022-09-25T04:50:08.740Z,11.8
2022-09-25T04:51:11.799Z,11.8
2022-09-25T04:52:15.013Z,11.8
2022-09-25T04:53:18.071Z,11.7
2022-09-25T04:54:21.468Z,11.7
2022-09-25T04:55:24.183Z,11.7
2022-09-25T04:56:27.045Z,11.7
2022-09-25T04:58:00.898Z,11.6
2022-09-25T04:59:04.367Z,11.7
2022-09-25T05:00:08.317Z,11.7
2022-09-25T05:01:11.225Z,11.6
2022-09-25T05:02:14.648Z,11.7
2022-09-25T05:03:18.879Z,11.7
2022-09-25T05:04:21.850Z,11.7
2022-09-25T05:05:24.745Z,11.7
2022-09-25T05:06:27.618Z,11.7
2022-09-25T05:07:30.967Z,11.7
2022-09-25T05:08:34.035Z,11.7
2022-09-25T05:09:36.831Z,11.6
2022-09-25T05:10:39.686Z,11.6
2022-09-25T05:11:42.232Z,11.6
2022-09-25T05:12:45.858Z,11.5
2022-09-25T05:13:48.865Z,11.6
2022-09-25T05:14:51.614Z,11.7
2022-09-25T05:15:55.409Z,11.7
2022-09-25T05:16:58.649Z,11.7
2022-09-25T05:18:01.450Z,11.7
2022-09-25T05:19:04.530Z,11.7
2022-09-25T05:20:07.244Z,11.7
2022-09-25T05:21:10.332Z,11.7
2022-09-25T05:22:13.127Z,11.7
2022-09-25T05:23:16.871Z,11.7
2022-09-25T05:24:20.605Z,11.6
2022-09-25T05:25:23.122Z,11.7
2022-09-25T05:26:25.262Z,11.7
2022-09-25T05:27:28.076Z,11.7
2022-09-25T05:28:30.868Z,11.7
2022-09-25T05:29:34.149Z,11.7
2022-09-25T05:30:37.428Z,11.7
2022-09-25T05:31:42.041Z,11.8
2022-09-25T05:32:45.278Z,11.7
2022-09-25T05:33:48.080Z,11.6
2022-09-25T05:34:51.488Z,11.6
2022-09-25T05:35:53.655Z,11.7
2022-09-25T05:36:56.899Z,11.7
2022-09-25T05:37:59.961Z,11.7
2022-09-25T05:39:02.764Z,11.6
2022-09-25T05:40:06.473Z,11.6
2022-09-25T05:41:09.344Z,11.7
2022-09-25T05:42:12.412Z,11.6
2022-09-25T05:43:15.556Z,11.7
2022-09-25T05:44:18.624Z,11.7
2022-09-25T05:45:21.503Z,11.6
2022-09-25T05:46:24.779Z,11.6
2022-09-25T05:47:28.699Z,11.6
2022-09-25T05:48:32.060Z,11.6
2022-09-25T05:49:34.651Z,11.7
2022-09-25T05:50:38.027Z,11.7
2022-09-25T05:51:40.751Z,11.6
2022-09-25T05:52:43.363Z,11.6
2022-09-25T05:53:46.799Z,11.7
2022-09-25T05:54:50.023Z,11.7
2022-09-25T05:55:52.194Z,11.7
2022-09-25T05:56:55.597Z,11.6
2022-09-25T05:57:58.108Z,11.6
2022-09-25T05:59:01.264Z,11.7
2022-09-25T06:00:04.137Z,11.6
2022-09-25T06:01:07.121Z,11.7
2022-09-25T06:02:10.841Z,11.6
2022-09-25T06:03:15.454Z,11.7
2022-09-25T06:04:18.868Z,11.7
2022-09-25T06:05:22.292Z,11.7
2022-09-25T06:06:28.910Z,11.8
2022-09-25T06:07:32.081Z,11.7
2022-09-25T06:08:35.655Z,11.6
2022-09-25T06:09:38.335Z,11.7
2022-09-25T06:10:41.116Z,11.6
2022-09-25T06:11:44.470Z,11.6
2022-09-25T06:12:47.095Z,11.7
2022-09-25T06:13:55.670Z,11.6
2022-09-25T06:14:59.008Z,11.7
2022-09-25T06:16:02.347Z,11.6
2022-09-25T06:17:05.864Z,11.7
2022-09-25T06:18:08.980Z,11.8
2022-09-25T06:19:12.904Z,11.8
2022-09-25T06:20:18.319Z,11.8
2022-09-25T06:21:21.389Z,11.8
2022-09-25T06:22:24.463Z,11.8
2022-09-25T06:23:27.084Z,11.8
2022-09-25T06:24:29.821Z,11.7
2022-09-25T06:25:33.254Z,11.8
2022-09-25T06:26:36.715Z,11.8
2022-09-25T06:27:39.503Z,11.7
2022-09-25T06:28:43.148Z,11.8
2022-09-25T06:29:46.044Z,11.8
2022-09-25T06:30:49.968Z,11.9
2022-09-25T06:31:52.587Z,11.8
2022-09-25T06:32:55.125Z,11.8
2022-09-25T06:33:58.125Z,11.7
2022-09-25T06:35:02.096Z,11.7
2022-09-25T06:36:05.264Z,11.7
2022-09-25T06:37:08.364Z,11.7
2022-09-25T06:38:10.996Z,11.6
2022-09-25T06:39:13.436Z,11.7
2022-09-25T06:40:17.268Z,11.8
2022-09-25T06:41:20.150Z,11.8
2022-09-25T06:42:22.405Z,11.7
2022-09-25T06:43:24.927Z,11.8
2022-09-25T06:44:28.328Z,11.8
2022-09-25T06:45:31.447Z,11.9
2022-09-25T06:46:35.303Z,11.9
2022-09-25T06:47:38.394Z,11.8
2022-09-25T06:48:41.739Z,11.8
2022-09-25T06:49:44.842Z,11.9
2022-09-25T06:50:48.725Z,11.9
2022-09-25T06:51:52.022Z,11.9
2022-09-25T06:52:55.239Z,11.8
2022-09-25T06:53:57.684Z,11.8
2022-09-25T06:55:00.549Z,11.8
2022-09-25T06:56:03.455Z,11.8
2022-09-25T06:57:06.449Z,11.9
2022-09-25T06:58:09.871Z,11.8
2022-09-25T06:59:12.754Z,11.8
2022-09-25T07:00:15.930Z,11.8
2022-09-25T07:01:18.817Z,11.9
2022-09-25T07:02:22.619Z,11.8
2022-09-25T07:03:25.582Z,11.9
2022-09-25T07:04:28.549Z,11.8
2022-09-25T07:05:31.463Z,11.8
2022-09-25T07:06:35.613Z,11.8
2022-09-25T07:07:38.762Z,11.8
2022-09-25T07:08:41.953Z,11.8
2022-09-25T07:09:45.387Z,11.9
2022-09-25T07:10:47.621Z,11.8
2022-09-25T07:11:51.347Z,11.8
2022-09-25T07:12:54.053Z,11.8
2022-09-25T07:13:57.609Z,11.9
2022-09-25T07:15:00.142Z,11.8
2022-09-25T07:16:03.359Z,11.9
2022-09-25T07:17:06.252Z,12
2022-09-25T07:18:08.684Z,11.9
2022-09-25T07:19:12.156Z,12
2022-09-25T07:20:15.903Z,12
2022-09-25T07:21:18.950Z,11.9
2022-09-25T07:22:22.923Z,11.9
2022-09-25T07:23:25.993Z,12
2022-09-25T07:24:28.792Z,11.9
2022-09-25T07:25:31.611Z,11.8
2022-09-25T07:26:42.406Z,11.9
2022-09-25T07:27:46.830Z,11.9
2022-09-25T07:28:50.093Z,11.9
2022-09-25T07:29:52.594Z,11.9
2022-09-25T07:30:56.196Z,12
2022-09-25T07:31:58.855Z,12
2022-09-25T07:33:01.758Z,12
2022-09-25T07:34:05.003Z,12.1
2022-09-25T07:35:08.095Z,12.1
2022-09-25T07:36:11.461Z,12
2022-09-25T07:37:14.606Z,11.9
2022-09-25T07:38:18.834Z,12
2022-09-25T07:39:22.186Z,11.9
2022-09-25T07:40:26.030Z,12
2022-09-25T07:41:29.554Z,12
2022-09-25T07:42:33.068Z,12
2022-09-25T07:43:36.170Z,12.1
2022-09-25T07:44:49.766Z,11.9
2022-09-25T07:45:53.963Z,12
2022-09-25T07:46:56.870Z,12.1
2022-09-25T07:47:59.107Z,12.1
2022-09-25T07:49:01.646Z,12
2022-09-25T07:50:04.806Z,12.1
2022-09-25T07:51:07.621Z,12.1
2022-09-25T07:52:10.559Z,12.2
2022-09-25T07:53:14.390Z,12.1
2022-09-25T07:54:18.482Z,12.1
2022-09-25T07:55:21.024Z,12.2
2022-09-25T07:56:24.184Z,12.1
2022-09-25T07:57:28.025Z,12.2
2022-09-25T07:58:31.019Z,12.2
2022-09-25T07:59:33.749Z,12
2022-09-25T08:00:36.335Z,12.1
2022-09-25T08:01:55.090Z,12.2
2022-09-25T08:02:58.848Z,12.2
2022-09-25T08:04:02.095Z,12.2
2022-09-25T08:05:05.372Z,12.3
2022-09-25T08:06:08.541Z,12.4
2022-09-25T08:07:10.437Z,12.4
2022-09-25T08:08:13.058Z,12.4
2022-09-25T08:09:16.564Z,12.4
2022-09-25T08:10:20.531Z,12.4
2022-09-25T08:11:23.260Z,12.4
2022-09-25T08:12:26.645Z,12.4
2022-09-25T08:13:29.723Z,12.4
2022-09-25T08:14:32.231Z,12.2
2022-09-25T08:15:35.843Z,12.3
2022-09-25T08:16:39.161Z,12.5
2022-09-25T08:17:41.394Z,12.5
2022-09-25T08:18:44.458Z,12.4
2022-09-25T08:19:47.815Z,12.3
2022-09-25T08:20:51.159Z,12.4
2022-09-25T08:21:54.044Z,12.5
2022-09-25T08:22:56.641Z,12.4
2022-09-25T08:23:59.718Z,12.4
2022-09-25T08:25:03.229Z,12.5
2022-09-25T08:26:07.031Z,12.5
2022-09-25T08:27:10.496Z,12.5
2022-09-25T08:28:13.730Z,12.6
2022-09-25T08:29:16.536Z,12.6
2022-09-25T08:30:19.879Z,12.6
2022-09-25T08:31:23.519Z,12.5
2022-09-25T08:32:26.363Z,12.6
2022-09-25T08:33:29.168Z,12.8
2022-09-25T08:34:50.455Z,12.6
2022-09-25T08:35:53.719Z,12.7
2022-09-25T08:36:56.156Z,12.7
2022-09-25T08:37:59.047Z,12.8
2022-09-25T08:39:02.128Z,12.8
2022-09-25T08:40:05.023Z,12.8
2022-09-25T08:41:08.434Z,12.8
2022-09-25T08:42:12.422Z,12.9
2022-09-25T08:43:14.792Z,13
2022-09-25T08:44:17.224Z,13
2022-09-25T08:45:24.372Z,12.9
2022-09-25T08:46:28.318Z,12.9
2022-09-25T08:47:31.498Z,12.9
2022-09-25T08:48:34.427Z,12.9
2022-09-25T08:49:37.899Z,12.9
2022-09-25T08:50:40.793Z,12.8
2022-09-25T08:51:43.681Z,12.8
2022-09-25T08:52:46.741Z,12.8
2022-09-25T08:53:49.163Z,12.9
2022-09-25T08:54:51.949Z,12.8
2022-09-25T08:55:54.816Z,12.8
2022-09-25T08:56:57.785Z,12.7
2022-09-25T08:58:01.649Z,12.6
2022-09-25T08:59:04.824Z,12.8
2022-09-25T09:00:07.623Z,12.8
2022-09-25T09:01:10.504Z,12.9
2022-09-25T09:02:14.155Z,12.9
2022-09-25T09:03:17.599Z,12.8
2022-09-25T09:04:20.581Z,12.7
2022-09-25T09:05:23.379Z,12.8
2022-09-25T09:06:26.554Z,12.7
2022-09-25T09:07:30.285Z,12.7
2022-09-25T09:08:33.284Z,12.7
2022-09-25T09:09:35.922Z,12.7
2022-09-25T09:10:39.071Z,12.7
2022-09-25T09:11:42.487Z,12.8
2022-09-25T09:12:45.969Z,12.9
2022-09-25T09:13:49.851Z,12.9
2022-09-25T09:14:52.567Z,12.9
2022-09-25T09:15:56.141Z,12.8
2022-09-25T09:16:59.564Z,12.8
2022-09-25T09:18:03.188Z,12.8
2022-09-25T09:19:06.033Z,12.8
2022-09-25T09:20:08.898Z,12.8
2022-09-25T09:21:12.363Z,12.9
2022-09-25T09:22:16.097Z,12.9
2022-09-25T09:23:18.618Z,12.8
2022-09-25T09:24:21.680Z,12.6
2022-09-25T09:25:24.671Z,12.6
2022-09-25T09:26:27.856Z,12.6
2022-09-25T09:27:30.566Z,12.6
2022-09-25T09:28:34.142Z,12.6
2022-09-25T09:29:37.918Z,12.7
2022-09-25T09:30:41.049Z,12.7
2022-09-25T09:31:43.593Z,12.7
2022-09-25T09:32:46.219Z,12.7
2022-09-25T09:33:49.043Z,12.7
2022-09-25T09:35:09.050Z,12.7
2022-09-25T09:36:12.676Z,12.7
2022-09-25T09:37:15.647Z,12.7
2022-09-25T09:38:18.472Z,12.6
2022-09-25T09:39:21.243Z,12.7
2022-09-25T09:40:24.819Z,12.7
2022-09-25T09:41:27.408Z,12.7
2022-09-25T09:42:30.210Z,12.8
2022-09-25T09:43:32.815Z,12.7
2022-09-25T09:44:35.664Z,12.8
2022-09-25T09:45:39.762Z,12.9
2022-09-25T09:46:43.304Z,12.8
2022-09-25T09:47:46.342Z,12.9
2022-09-25T09:48:49.583Z,12.9
2022-09-25T09:49:52.883Z,12.8
2022-09-25T09:50:55.590Z,12.7
2022-09-25T09:51:57.914Z,12.8
2022-09-25T09:53:00.904Z,12.8
2022-09-25T09:54:04.412Z,12.9
2022-09-25T09:55:07.585Z,12.9
2022-09-25T09:56:11.076Z,12.9
2022-09-25T09:57:14.320Z,12.9
2022-09-25T09:58:18.050Z,12.9
2022-09-25T09:59:21.689Z,12.8
2022-09-25T10:00:25.416Z,12.8
2022-09-25T10:01:45.310Z,12.8
2022-09-25T10:02:49.450Z,12.8
2022-09-25T10:03:52.791Z,12.8
2022-09-25T10:04:55.704Z,12.7
2022-09-25T10:05:58.163Z,12.8
2022-09-25T10:07:01.153Z,12.9
2022-09-25T10:08:04.048Z,13
2022-09-25T10:09:07.694Z,13
2022-09-25T10:10:10.305Z,13.1
2022-09-25T10:11:13.370Z,13
2022-09-25T10:12:17.105Z,13
2022-09-25T10:13:19.910Z,12.9
2022-09-25T10:14:22.782Z,12.9
2022-09-25T10:15:25.389Z,13
2022-09-25T10:16:28.507Z,13.1
2022-09-25T10:17:32.572Z,13
2022-09-25T10:18:36.196Z,13
2022-09-25T10:19:39.307Z,13
2022-09-25T10:20:42.483Z,12.9
2022-09-25T10:21:45.649Z,12.9
2022-09-25T10:22:48.516Z,12.9
2022-09-25T10:23:51.960Z,13
2022-09-25T10:24:53.891Z,13
2022-09-25T10:25:57.650Z,13.1
2022-09-25T10:27:01.001Z,13.2
2022-09-25T10:28:04.075Z,13.3
2022-09-25T10:29:06.954Z,13.3
2022-09-25T10:30:10.144Z,13.3
2022-09-25T10:31:13.200Z,13.3
2022-09-25T10:32:16.645Z,13.3
2022-09-25T10:33:20.511Z,13.2
2022-09-25T10:34:23.539Z,13.3
2022-09-25T10:35:26.551Z,13.4
2022-09-25T10:36:29.910Z,13.4
2022-09-25T10:37:32.436Z,13.4
2022-09-25T10:38:35.501Z,13.4
2022-09-25T10:39:48.430Z,13.2
2022-09-25T10:40:52.768Z,13.1
2022-09-25T10:41:55.719Z,13.1
2022-09-25T10:42:58.793Z,13.1
2022-09-25T10:44:01.462Z,13.2
2022-09-25T10:45:04.105Z,13.3
2022-09-25T10:46:08.200Z,13.3
2022-09-25T10:47:11.340Z,13.3
2022-09-25T10:48:14.756Z,13.3
2022-09-25T10:49:18.927Z,13.4
2022-09-25T10:50:22.086Z,13.5
2022-09-25T10:51:25.731Z,13.5
2022-09-25T10:52:28.916Z,13.4
2022-09-25T10:53:32.352Z,13.4
2022-09-25T10:54:46.293Z,13.4
2022-09-25T10:55:49.511Z,13.4
2022-09-25T10:56:52.021Z,13.2
2022-09-25T10:57:53.919Z,13.3
2022-09-25T10:58:57.562Z,13.4
2022-09-25T11:00:00.630Z,13.3
2022-09-25T11:01:03.325Z,13.3
2022-09-25T11:02:07.508Z,13.3
2022-09-25T11:03:19.023Z,13.4
2022-09-25T11:04:23.171Z,13.5
2022-09-25T11:05:26.332Z,13.6
2022-09-25T11:06:29.677Z,13.7
2022-09-25T11:07:33.150Z,13.7
2022-09-25T11:08:36.314Z,13.6
2022-09-25T11:09:38.845Z,13.6
2022-09-25T11:10:41.238Z,13.7
2022-09-25T11:11:44.709Z,13.6
2022-09-25T11:12:47.812Z,13.6
2022-09-25T11:13:50.687Z,13.6
2022-09-25T11:14:53.630Z,13.6
2022-09-25T11:15:56.986Z,13.7
2022-09-25T11:17:00.031Z,13.9
2022-09-25T11:18:02.644Z,14
2022-09-25T11:19:07.075Z,14.1
2022-09-25T11:20:11.218Z,14
2022-09-25T11:21:13.739Z,13.9
2022-09-25T11:22:16.368Z,13.9
2022-09-25T11:23:19.191Z,13.9
2022-09-25T11:24:22.652Z,14.1
2022-09-25T11:25:26.144Z,14.1
2022-09-25T11:26:29.292Z,14.1
2022-09-25T11:27:33.113Z,14.2
2022-09-25T11:28:36.386Z,14.4
2022-09-25T11:29:39.518Z,14.8
2022-09-25T11:30:42.467Z,14.5
2022-09-25T11:31:45.986Z,14.7
2022-09-25T11:32:54.577Z,14.8
2022-09-25T11:33:57.460Z,14.8
2022-09-25T11:35:00.299Z,14.9
2022-09-25T11:36:04.660Z,14.9
2022-09-25T11:37:08.273Z,14.7
2022-09-25T11:38:11.258Z,14.8
2022-09-25T11:39:15.485Z,14.9
2022-09-25T11:40:18.397Z,14.9
2022-09-25T11:41:21.940Z,14.8
2022-09-25T11:42:25.663Z,14.7
2022-09-25T11:43:28.400Z,14.7
2022-09-25T11:44:31.184Z,14.7
2022-09-25T11:45:33.143Z,14.9
2022-09-25T11:46:36.019Z,15
2022-09-25T11:47:39.193Z,15.1
2022-09-25T11:48:42.550Z,14.9
2022-09-25T11:49:45.337Z,15.1
2022-09-25T11:50:47.890Z,15.2
2022-09-25T11:51:52.131Z,15.3
2022-09-25T11:52:55.477Z,15
2022-09-25T11:54:35.822Z,15
2022-09-25T11:55:45.258Z,15
2022-09-25T11:56:48.165Z,15
2022-09-25T11:57:51.636Z,15
2022-09-25T12:00:08.480Z,15.1
2022-09-25T12:01:11.670Z,15.1
2022-09-25T12:02:15.113Z,15
2022-09-25T12:03:18.067Z,15.1
2022-09-25T12:04:20.589Z,15.1
2022-09-25T12:05:23.772Z,14.8
2022-09-25T12:06:27.235Z,14.9
2022-09-25T12:07:31.291Z,15
2022-09-25T12:08:35.008Z,15.1
2022-09-25T12:09:37.145Z,15.3
2022-09-25T12:10:39.837Z,15.6
2022-09-25T12:11:46.697Z,16.1
2022-09-25T12:12:49.879Z,16.3
2022-09-25T12:13:52.323Z,16.2
2022-09-25T12:14:54.492Z,16.2
2022-09-25T12:15:57.643Z,16.2
2022-09-25T12:17:00.815Z,16.1
2022-09-25T12:18:03.606Z,15.9
2022-09-25T12:19:06.419Z,15.7
2022-09-25T12:20:09.934Z,15.9
2022-09-25T12:21:12.575Z,15.9
2022-09-25T12:22:15.409Z,15.5
2022-09-25T12:23:19.369Z,15.4
2022-09-25T12:24:22.192Z,15.2
2022-09-25T12:25:25.617Z,15.2
2022-09-25T12:26:28.687Z,15.4
2022-09-25T12:27:31.818Z,15.4
2022-09-25T12:28:34.893Z,15.5
2022-09-25T12:29:38.061Z,15.5
2022-09-25T12:30:41.566Z,15.3
2022-09-25T12:31:44.645Z,15.1
2022-09-25T12:32:47.916Z,15.1
2022-09-25T12:33:50.981Z,15.2
2022-09-25T12:34:53.534Z,15
2022-09-25T12:35:56.430Z,15.2
2022-09-25T12:36:59.424Z,15.3
2022-09-25T12:38:02.314Z,15.3
2022-09-25T12:39:06.400Z,15.4
2022-09-25T12:40:09.338Z,15.4
2022-09-25T12:41:12.279Z,15.5
2022-09-25T12:42:15.631Z,15.5
2022-09-25T12:43:19.007Z,15.6
2022-09-25T12:44:29.166Z,15.6
2022-09-25T12:45:31.616Z,15.6
2022-09-25T12:46:35.320Z,15.6
2022-09-25T12:47:38.306Z,15.6
2022-09-25T12:48:41.294Z,15.7
2022-09-25T12:49:44.637Z,15.6
2022-09-25T12:50:47.253Z,15.6
2022-09-25T12:51:50.060Z,15.5
2022-09-25T12:52:52.770Z,15.6
2022-09-25T12:53:56.170Z,15.7
2022-09-25T12:55:00.398Z,15.6
2022-09-25T12:56:03.201Z,15.6
2022-09-25T12:57:06.383Z,15.6
2022-09-25T12:58:08.559Z,15.6
2022-09-25T12:59:11.923Z,15.4
2022-09-25T13:00:15.261Z,15.4
2022-09-25T13:01:18.545Z,15.4
2022-09-25T13:02:21.698Z,15.4
2022-09-25T13:03:24.753Z,15.3
2022-09-25T13:04:27.296Z,15.3
2022-09-25T13:05:29.803Z,15.5
2022-09-25T13:06:33.033Z,15.5
2022-09-25T13:07:35.841Z,15.5
2022-09-25T13:08:38.840Z,15.6
2022-09-25T13:09:41.199Z,15.5
2022-09-25T13:10:45.362Z,15.5
2022-09-25T13:11:48.622Z,15.4
2022-09-25T13:12:51.614Z,15.5
2022-09-25T13:13:55.067Z,15.4
2022-09-25T13:14:58.500Z,15.4
2022-09-25T13:16:01.999Z,15.5
2022-09-25T13:17:05.508Z,15.3
2022-09-25T13:18:08.932Z,15.4
2022-09-25T13:19:12.094Z,15.4
2022-09-25T13:20:14.908Z,15.4
2022-09-25T13:21:17.899Z,15.3
2022-09-25T13:22:20.823Z,15.1
2022-09-25T13:23:23.815Z,15.3
2022-09-25T13:24:26.692Z,15.3
2022-09-25T13:25:29.814Z,15.2
2022-09-25T13:26:33.730Z,15.3
2022-09-25T13:27:38.971Z,15.4
2022-09-25T13:28:42.693Z,15.1
2022-09-25T13:29:45.409Z,15.3
2022-09-25T13:30:48.945Z,15.3
2022-09-25T13:31:52.561Z,15.2
2022-09-25T13:32:55.278Z,15.4
2022-09-25T13:33:58.071Z,15.4
2022-09-25T13:35:00.797Z,15.4
2022-09-25T13:36:03.408Z,15.4
2022-09-25T13:37:05.640Z,15.3
2022-09-25T13:38:08.900Z,15.4
2022-09-25T13:39:12.356Z,15.4
2022-09-25T13:40:16.317Z,15.5
2022-09-25T13:41:19.619Z,15.4
2022-09-25T13:42:23.799Z,15.4
2022-09-25T13:43:26.867Z,15.3
2022-09-25T13:44:29.861Z,15.4
2022-09-25T13:45:32.389Z,15.5
2022-09-25T13:46:35.643Z,15.5
2022-09-25T13:47:38.708Z,15.6
2022-09-25T13:48:41.039Z,15.7
2022-09-25T13:49:44.501Z,15.8
2022-09-25T13:50:47.135Z,15.7
2022-09-25T13:51:49.662Z,15.8
2022-09-25T13:52:52.814Z,15.7
2022-09-25T13:53:55.255Z,15.6
2022-09-25T13:54:57.759Z,15.6
2022-09-25T13:56:00.748Z,15.6
2022-09-25T13:57:03.365Z,15.7
2022-09-25T13:58:07.525Z,15.7
2022-09-25T13:59:11.442Z,15.7
2022-09-25T14:00:14.616Z,15.7
2022-09-25T14:01:18.134Z,15.6
2022-09-25T14:02:21.301Z,15.3
2022-09-25T14:03:24.389Z,15.4
2022-09-25T14:04:27.725Z,15.5
2022-09-25T14:05:30.584Z,15.4
2022-09-25T14:06:40.536Z,15.5
2022-09-25T14:07:43.708Z,15.4
2022-09-25T14:08:46.421Z,15.2